Montreux, Switzerland
Current Conditions -  °F | °C
As of 10:50 AM on Thursday 27 Nov 2014 (Local Time) from LSMS Reporting Station
Scattered Clouds Scattered Clouds  
Wind Chill: 46°   Ceiling: Unl
Heat Index: 48°   Visibility: 6mi
Dew Point: 41°   Wind: 5mph
Humidity: 76%   Direction: 90°E
Pressure: 29.8"   Gusts: NA
Location:  46.45°N, 6.88°E
Report Text: LSMS 270950Z 09004KT 030V120 9999 FEW080 SCT130 09/05 Q1009
Loading
Personal Weather Stations






























Interactive Weather Map New forecast layout! Learn more

10-Day Weather Forecast

Advertisements
Track Severe Weather on mobile